sensor_id;sensor_type;location;lat;lon;timestamp;temperature;humidity
17639;DHT22;8938;53.546;9.954;2023-03-24T00:02:17;15.20;99.90
17639;DHT22;8938;53.546;9.954;2023-03-24T00:04:43;15.20;99.90
17639;DHT22;8938;53.546;9.954;2023-03-24T00:07:10;15.20;99.90
17639;DHT22;8938;53.546;9.954;2023-03-24T00:09:41;15.20;99.90
17639;DHT22;8938;53.546;9.954;2023-03-24T00:12:08;15.20;99.90
17639;DHT22;8938;53.546;9.954;2023-03-24T00:14:35;15.20;99.90
17639;DHT22;8938;53.546;9.954;2023-03-24T00:17:06;15.20;99.90
17639;DHT22;8938;53.546;9.954;2023-03-24T00:19:34;15.20;99.90
17639;DHT22;8938;53.546;9.954;2023-03-24T00:22:04;15.20;99.90
17639;DHT22;8938;53.546;9.954;2023-03-24T00:24:30;15.20;99.90
17639;DHT22;8938;53.546;9.954;2023-03-24T00:26:57;15.20;99.90
17639;DHT22;8938;53.546;9.954;2023-03-24T00:29:23;15.10;99.90
17639;DHT22;8938;53.546;9.954;2023-03-24T00:31:50;15.20;99.90
17639;DHT22;8938;53.546;9.954;2023-03-24T00:34:17;15.00;99.90
17639;DHT22;8938;53.546;9.954;2023-03-24T00:36:46;15.00;99.90
17639;DHT22;8938;53.546;9.954;2023-03-24T00:39:13;15.00;99.90
17639;DHT22;8938;53.546;9.954;2023-03-24T00:41:41;15.00;99.90
17639;DHT22;8938;53.546;9.954;2023-03-24T00:44:10;14.90;99.90
17639;DHT22;8938;53.546;9.954;2023-03-24T00:46:49;14.80;99.90
17639;DHT22;8938;53.546;9.954;2023-03-24T00:49:26;14.70;99.90
17639;DHT22;8938;53.546;9.954;2023-03-24T00:52:13;14.60;99.90
17639;DHT22;8938;53.546;9.954;2023-03-24T00:54:40;14.50;99.90
17639;DHT22;8938;53.546;9.954;2023-03-24T00:57:06;14.50;99.90
17639;DHT22;8938;53.546;9.954;2023-03-24T00:59:34;14.50;99.90
17639;DHT22;8938;53.546;9.954;2023-03-24T01:02:07;14.50;99.90
17639;DHT22;8938;53.546;9.954;2023-03-24T01:04:37;14.50;99.90
17639;DHT22;8938;53.546;9.954;2023-03-24T01:07:04;14.50;99.90
17639;DHT22;8938;53.546;9.954;2023-03-24T01:09:30;14.50;99.90
17639;DHT22;8938;53.546;9.954;2023-03-24T01:11:56;14.40;99.90
17639;DHT22;8938;53.546;9.954;2023-03-24T01:14:21;14.30;99.90
17639;DHT22;8938;53.546;9.954;2023-03-24T01:16:47;14.20;99.90
17639;DHT22;8938;53.546;9.954;2023-03-24T01:19:13;14.30;99.90
17639;DHT22;8938;53.546;9.954;2023-03-24T01:21:39;14.30;99.90
17639;DHT22;8938;53.546;9.954;2023-03-24T01:24:06;14.40;99.90
17639;DHT22;8938;53.546;9.954;2023-03-24T01:26:32;14.40;99.90
17639;DHT22;8938;53.546;9.954;2023-03-24T01:28:58;14.40;99.90
17639;DHT22;8938;53.546;9.954;2023-03-24T01:31:23;14.50;99.90
17639;DHT22;8938;53.546;9.954;2023-03-24T01:33:49;14.30;99.90
17639;DHT22;8938;53.546;9.954;2023-03-24T01:36:15;14.20;99.90
17639;DHT22;8938;53.546;9.954;2023-03-24T01:38:40;14.30;99.90
17639;DHT22;8938;53.546;9.954;2023-03-24T01:41:06;14.40;99.90
17639;DHT22;8938;53.546;9.954;2023-03-24T01:43:33;14.50;99.90
17639;DHT22;8938;53.546;9.954;2023-03-24T01:48:32;14.50;99.90
17639;DHT22;8938;53.546;9.954;2023-03-24T01:51:07;14.60;99.90
17639;DHT22;8938;53.546;9.954;2023-03-24T01:53:37;14.50;99.90
17639;DHT22;8938;53.546;9.954;2023-03-24T01:56:04;14.60;99.90
17639;DHT22;8938;53.546;9.954;2023-03-24T01:58:31;14.60;99.90
17639;DHT22;8938;53.546;9.954;2023-03-24T02:00:57;14.70;99.90
17639;DHT22;8938;53.546;9.954;2023-03-24T02:03:25;14.60;99.90
17639;DHT22;8938;53.546;9.954;2023-03-24T02:05:53;14.70;99.90
17639;DHT22;8938;53.546;9.954;2023-03-24T02:10:54;14.70;99.90
17639;DHT22;8938;53.546;9.954;2023-03-24T02:13:20;14.70;99.90
17639;DHT22;8938;53.546;9.954;2023-03-24T02:24:50;14.60;99.90
17639;DHT22;8938;53.546;9.954;2023-03-24T02:27:31;14.60;99.90
17639;DHT22;8938;53.546;9.954;2023-03-24T02:38:26;14.40;99.90
17639;DHT22;8938;53.546;9.954;2023-03-24T02:47:17;14.50;99.90
17639;DHT22;8938;53.546;9.954;2023-03-24T02:49:50;14.40;99.90
17639;DHT22;8938;53.546;9.954;2023-03-24T02:52:26;14.30;99.90
17639;DHT22;8938;53.546;9.954;2023-03-24T02:55:09;14.30;99.90
17639;DHT22;8938;53.546;9.954;2023-03-24T03:00:28;14.30;99.90
17639;DHT22;8938;53.546;9.954;2023-03-24T03:03:07;14.30;99.90
17639;DHT22;8938;53.546;9.954;2023-03-24T03:05:41;14.30;99.90
17639;DHT22;8938;53.546;9.954;2023-03-24T03:08:11;14.30;99.90
17639;DHT22;8938;53.546;9.954;2023-03-24T03:10:41;14.40;99.90
17639;DHT22;8938;53.546;9.954;2023-03-24T03:13:38;14.40;99.90
17639;DHT22;8938;53.546;9.954;2023-03-24T03:16:12;14.40;99.90
17639;DHT22;8938;53.546;9.954;2023-03-24T03:18:42;14.20;99.90
17639;DHT22;8938;53.546;9.954;2023-03-24T03:21:14;14.20;99.90
17639;DHT22;8938;53.546;9.954;2023-03-24T03:23:51;14.20;99.90
17639;DHT22;8938;53.546;9.954;2023-03-24T03:26:19;14.20;99.90
17639;DHT22;8938;53.546;9.954;2023-03-24T03:28:51;14.20;99.90
17639;DHT22;8938;53.546;9.954;2023-03-24T03:31:29;14.20;99.90
17639;DHT22;8938;53.546;9.954;2023-03-24T03:34:07;14.10;99.90
17639;DHT22;8938;53.546;9.954;2023-03-24T03:37:12;14.20;99.90
17639;DHT22;8938;53.546;9.954;2023-03-24T03:40:32;14.20;99.90
17639;DHT22;8938;53.546;9.954;2023-03-24T03:42:56;14.30;99.90
17639;DHT22;8938;53.546;9.954;2023-03-24T03:45:21;14.40;99.90
17639;DHT22;8938;53.546;9.954;2023-03-24T03:47:47;14.50;99.90
17639;DHT22;8938;53.546;9.954;2023-03-24T03:50:13;14.60;99.90
17639;DHT22;8938;53.546;9.954;2023-03-24T03:52:39;14.50;99.90
17639;DHT22;8938;53.546;9.954;2023-03-24T03:55:06;14.60;99.90
17639;DHT22;8938;53.546;9.954;2023-03-24T03:57:33;14.60;99.90
17639;DHT22;8938;53.546;9.954;2023-03-24T04:00:01;14.50;99.90
17639;DHT22;8938;53.546;9.954;2023-03-24T04:05:35;14.60;99.90
17639;DHT22;8938;53.546;9.954;2023-03-24T04:08:24;14.60;99.90
17639;DHT22;8938;53.546;9.954;2023-03-24T04:11:03;14.60;99.90
17639;DHT22;8938;53.546;9.954;2023-03-24T04:27:35;15.00;99.90
17639;DHT22;8938;53.546;9.954;2023-03-24T04:32:34;15.00;99.90
17639;DHT22;8938;53.546;9.954;2023-03-24T04:35:12;15.00;99.90
17639;DHT22;8938;53.546;9.954;2023-03-24T04:37:45;15.00;99.90
17639;DHT22;8938;53.546;9.954;2023-03-24T04:40:12;15.10;99.90
17639;DHT22;8938;53.546;9.954;2023-03-24T04:42:48;15.10;99.90
17639;DHT22;8938;53.546;9.954;2023-03-24T04:45:17;15.00;99.90
17639;DHT22;8938;53.546;9.954;2023-03-24T04:47:47;14.90;99.90
17639;DHT22;8938;53.546;9.954;2023-03-24T04:50:26;14.80;99.90
17639;DHT22;8938;53.546;9.954;2023-03-24T04:52:55;14.70;99.90
17639;DHT22;8938;53.546;9.954;2023-03-24T04:57:49;14.70;99.90
17639;DHT22;8938;53.546;9.954;2023-03-24T05:00:14;14.60;99.90
17639;DHT22;8938;53.546;9.954;2023-03-24T05:02:40;14.60;99.90
17639;DHT22;8938;53.546;9.954;2023-03-24T05:05:06;14.70;99.90
17639;DHT22;8938;53.546;9.954;2023-03-24T05:07:32;14.80;99.90
17639;DHT22;8938;53.546;9.954;2023-03-24T05:09:58;14.80;99.90
17639;DHT22;8938;53.546;9.954;2023-03-24T05:12:24;14.80;99.90
17639;DHT22;8938;53.546;9.954;2023-03-24T05:14:49;14.80;99.90
17639;DHT22;8938;53.546;9.954;2023-03-24T05:17:15;14.90;99.90
17639;DHT22;8938;53.546;9.954;2023-03-24T05:19:40;14.90;99.90
17639;DHT22;8938;53.546;9.954;2023-03-24T05:22:06;14.90;99.90
17639;DHT22;8938;53.546;9.954;2023-03-24T05:24:31;14.90;99.90
17639;DHT22;8938;53.546;9.954;2023-03-24T05:26:57;15.00;99.90
17639;DHT22;8938;53.546;9.954;2023-03-24T05:29:22;15.00;99.90
17639;DHT22;8938;53.546;9.954;2023-03-24T05:31:48;15.00;99.90
17639;DHT22;8938;53.546;9.954;2023-03-24T05:34:14;15.10;99.90
17639;DHT22;8938;53.546;9.954;2023-03-24T05:36:39;15.10;99.90
17639;DHT22;8938;53.546;9.954;2023-03-24T05:39:05;15.00;99.90
17639;DHT22;8938;53.546;9.954;2023-03-24T05:41:30;15.10;99.90
17639;DHT22;8938;53.546;9.954;2023-03-24T05:43:56;15.10;99.90
17639;DHT22;8938;53.546;9.954;2023-03-24T05:46:21;15.10;99.90
17639;DHT22;8938;53.546;9.954;2023-03-24T05:48:47;15.20;99.90
17639;DHT22;8938;53.546;9.954;2023-03-24T05:51:12;15.30;99.90
17639;DHT22;8938;53.546;9.954;2023-03-24T05:53:38;15.20;99.90
17639;DHT22;8938;53.546;9.954;2023-03-24T05:56:04;15.20;99.90
17639;DHT22;8938;53.546;9.954;2023-03-24T05:58:30;15.20;99.90
17639;DHT22;8938;53.546;9.954;2023-03-24T06:00:58;15.30;99.90
17639;DHT22;8938;53.546;9.954;2023-03-24T06:03:24;15.30;99.90
17639;DHT22;8938;53.546;9.954;2023-03-24T06:05:49;15.30;99.90
17639;DHT22;8938;53.546;9.954;2023-03-24T06:08:15;15.40;99.90
17639;DHT22;8938;53.546;9.954;2023-03-24T06:10:41;15.30;99.90
17639;DHT22;8938;53.546;9.954;2023-03-24T06:13:07;15.40;99.90
17639;DHT22;8938;53.546;9.954;2023-03-24T06:15:33;15.40;99.90
17639;DHT22;8938;53.546;9.954;2023-03-24T06:17:59;15.30;99.90
17639;DHT22;8938;53.546;9.954;2023-03-24T06:20:25;15.20;99.90
17639;DHT22;8938;53.546;9.954;2023-03-24T06:22:52;15.20;99.90
17639;DHT22;8938;53.546;9.954;2023-03-24T06:25:23;15.20;99.90
17639;DHT22;8938;53.546;9.954;2023-03-24T06:27:51;15.20;99.90
17639;DHT22;8938;53.546;9.954;2023-03-24T06:30:17;15.20;99.90
17639;DHT22;8938;53.546;9.954;2023-03-24T06:32:43;15.20;99.90
17639;DHT22;8938;53.546;9.954;2023-03-24T06:35:13;15.20;99.90
17639;DHT22;8938;53.546;9.954;2023-03-24T06:37:40;15.30;99.90
17639;DHT22;8938;53.546;9.954;2023-03-24T06:40:06;15.30;99.90
17639;DHT22;8938;53.546;9.954;2023-03-24T06:42:34;15.30;99.90
17639;DHT22;8938;53.546;9.954;2023-03-24T06:45:00;15.20;99.90
17639;DHT22;8938;53.546;9.954;2023-03-24T06:47:25;15.20;99.90
17639;DHT22;8938;53.546;9.954;2023-03-24T06:49:51;15.30;99.90
17639;DHT22;8938;53.546;9.954;2023-03-24T06:52:16;15.30;99.90
17639;DHT22;8938;53.546;9.954;2023-03-24T06:54:42;15.30;99.90
17639;DHT22;8938;53.546;9.954;2023-03-24T06:57:07;15.40;99.90
17639;DHT22;8938;53.546;9.954;2023-03-24T06:59:33;15.40;99.90
17639;DHT22;8938;53.546;9.954;2023-03-24T07:01:58;15.50;99.90
17639;DHT22;8938;53.546;9.954;2023-03-24T07:04:25;15.50;99.90
17639;DHT22;8938;53.546;9.954;2023-03-24T07:06:52;15.50;99.90
17639;DHT22;8938;53.546;9.954;2023-03-24T07:09:17;15.50;99.90
17639;DHT22;8938;53.546;9.954;2023-03-24T07:11:44;15.40;99.90
17639;DHT22;8938;53.546;9.954;2023-03-24T07:14:09;15.30;99.90
17639;DHT22;8938;53.546;9.954;2023-03-24T07:16:35;15.40;99.90
17639;DHT22;8938;53.546;9.954;2023-03-24T07:19:01;15.40;99.90
17639;DHT22;8938;53.546;9.954;2023-03-24T07:21:27;15.40;99.90
17639;DHT22;8938;53.546;9.954;2023-03-24T07:23:52;15.50;99.90
17639;DHT22;8938;53.546;9.954;2023-03-24T07:26:18;15.60;99.90
17639;DHT22;8938;53.546;9.954;2023-03-24T07:28:44;15.80;99.90
17639;DHT22;8938;53.546;9.954;2023-03-24T07:31:09;15.80;99.90
17639;DHT22;8938;53.546;9.954;2023-03-24T07:33:36;15.80;99.90
17639;DHT22;8938;53.546;9.954;2023-03-24T07:36:03;16.00;99.90
17639;DHT22;8938;53.546;9.954;2023-03-24T07:38:29;15.90;99.90
17639;DHT22;8938;53.546;9.954;2023-03-24T07:40:57;16.00;99.90
17639;DHT22;8938;53.546;9.954;2023-03-24T07:43:22;16.00;99.90
17639;DHT22;8938;53.546;9.954;2023-03-24T07:45:48;15.80;99.90
17639;DHT22;8938;53.546;9.954;2023-03-24T07:48:13;15.80;99.90
17639;DHT22;8938;53.546;9.954;2023-03-24T07:50:39;15.70;99.90
17639;DHT22;8938;53.546;9.954;2023-03-24T07:53:04;15.50;99.90
17639;DHT22;8938;53.546;9.954;2023-03-24T07:55:35;15.40;99.90
17639;DHT22;8938;53.546;9.954;2023-03-24T07:58:00;15.40;99.90
17639;DHT22;8938;53.546;9.954;2023-03-24T08:00:26;15.60;99.90
17639;DHT22;8938;53.546;9.954;2023-03-24T08:02:53;15.60;99.90
17639;DHT22;8938;53.546;9.954;2023-03-24T08:05:20;15.60;99.90
17639;DHT22;8938;53.546;9.954;2023-03-24T08:07:50;15.60;99.90
17639;DHT22;8938;53.546;9.954;2023-03-24T08:10:21;15.60;99.90
17639;DHT22;8938;53.546;9.954;2023-03-24T08:12:48;15.60;99.90
17639;DHT22;8938;53.546;9.954;2023-03-24T08:15:13;15.60;99.90
17639;DHT22;8938;53.546;9.954;2023-03-24T08:17:39;15.70;99.90
17639;DHT22;8938;53.546;9.954;2023-03-24T08:20:07;15.60;99.90
17639;DHT22;8938;53.546;9.954;2023-03-24T08:22:39;15.70;99.90
17639;DHT22;8938;53.546;9.954;2023-03-24T08:25:05;15.70;99.90
17639;DHT22;8938;53.546;9.954;2023-03-24T08:27:31;15.80;99.90
17639;DHT22;8938;53.546;9.954;2023-03-24T08:29:57;15.80;99.90
17639;DHT22;8938;53.546;9.954;2023-03-24T08:32:22;15.70;99.90
17639;DHT22;8938;53.546;9.954;2023-03-24T08:34:48;15.80;99.90
17639;DHT22;8938;53.546;9.954;2023-03-24T08:37:13;15.80;99.90
17639;DHT22;8938;53.546;9.954;2023-03-24T08:39:39;15.90;99.90
17639;DHT22;8938;53.546;9.954;2023-03-24T08:42:05;15.80;99.90
17639;DHT22;8938;53.546;9.954;2023-03-24T08:44:30;15.70;99.90
17639;DHT22;8938;53.546;9.954;2023-03-24T08:46:56;15.60;99.90
17639;DHT22;8938;53.546;9.954;2023-03-24T08:49:22;15.60;99.90
17639;DHT22;8938;53.546;9.954;2023-03-24T08:51:47;15.60;99.90
17639;DHT22;8938;53.546;9.954;2023-03-24T08:54:13;15.90;99.90
17639;DHT22;8938;53.546;9.954;2023-03-24T08:56:39;16.10;99.90
17639;DHT22;8938;53.546;9.954;2023-03-24T08:59:05;16.00;99.90
17639;DHT22;8938;53.546;9.954;2023-03-24T09:01:31;16.00;99.90
17639;DHT22;8938;53.546;9.954;2023-03-24T09:03:58;16.00;99.90
17639;DHT22;8938;53.546;9.954;2023-03-24T09:06:24;15.90;99.90
17639;DHT22;8938;53.546;9.954;2023-03-24T09:08:52;15.90;99.90
17639;DHT22;8938;53.546;9.954;2023-03-24T09:11:19;15.90;99.90
17639;DHT22;8938;53.546;9.954;2023-03-24T09:13:45;15.80;99.90
17639;DHT22;8938;53.546;9.954;2023-03-24T09:16:11;15.90;99.90
17639;DHT22;8938;53.546;9.954;2023-03-24T09:18:37;15.90;99.90
17639;DHT22;8938;53.546;9.954;2023-03-24T09:21:03;15.80;99.90
17639;DHT22;8938;53.546;9.954;2023-03-24T09:23:28;15.80;99.90
17639;DHT22;8938;53.546;9.954;2023-03-24T09:25:56;15.80;99.90
17639;DHT22;8938;53.546;9.954;2023-03-24T09:28:22;15.80;99.90
17639;DHT22;8938;53.546;9.954;2023-03-24T09:30:47;15.90;99.90
17639;DHT22;8938;53.546;9.954;2023-03-24T09:33:13;16.00;99.90
17639;DHT22;8938;53.546;9.954;2023-03-24T09:35:39;16.00;99.90
17639;DHT22;8938;53.546;9.954;2023-03-24T09:38:05;15.90;99.90
17639;DHT22;8938;53.546;9.954;2023-03-24T09:40:35;15.90;99.90
17639;DHT22;8938;53.546;9.954;2023-03-24T09:43:24;16.20;99.90
17639;DHT22;8938;53.546;9.954;2023-03-24T09:45:54;16.30;99.90
17639;DHT22;8938;53.546;9.954;2023-03-24T09:48:41;16.30;99.90
17639;DHT22;8938;53.546;9.954;2023-03-24T09:51:14;16.40;99.90
17639;DHT22;8938;53.546;9.954;2023-03-24T09:53:54;16.20;99.90
17639;DHT22;8938;53.546;9.954;2023-03-24T09:56:22;16.10;99.90
17639;DHT22;8938;53.546;9.954;2023-03-24T09:58:53;15.90;99.90
17639;DHT22;8938;53.546;9.954;2023-03-24T10:01:23;15.90;99.90
17639;DHT22;8938;53.546;9.954;2023-03-24T10:03:48;15.90;99.90
17639;DHT22;8938;53.546;9.954;2023-03-24T10:06:24;15.90;99.90
17639;DHT22;8938;53.546;9.954;2023-03-24T10:09:30;15.90;99.90
17639;DHT22;8938;53.546;9.954;2023-03-24T10:15:00;15.90;99.90
17639;DHT22;8938;53.546;9.954;2023-03-24T10:20:24;17.10;99.90
17639;DHT22;8938;53.546;9.954;2023-03-24T10:23:19;17.40;99.90
17639;DHT22;8938;53.546;9.954;2023-03-24T10:30:53;17.00;99.90
17639;DHT22;8938;53.546;9.954;2023-03-24T10:33:20;17.00;99.90
17639;DHT22;8938;53.546;9.954;2023-03-24T10:35:56;17.00;99.90
17639;DHT22;8938;53.546;9.954;2023-03-24T10:38:23;17.20;99.90
17639;DHT22;8938;53.546;9.954;2023-03-24T10:40:49;17.20;99.90
17639;DHT22;8938;53.546;9.954;2023-03-24T10:43:16;16.90;99.90
17639;DHT22;8938;53.546;9.954;2023-03-24T10:45:46;16.70;99.90
17639;DHT22;8938;53.546;9.954;2023-03-24T10:48:15;16.60;99.90
17639;DHT22;8938;53.546;9.954;2023-03-24T10:50:57;16.50;99.90
17639;DHT22;8938;53.546;9.954;2023-03-24T10:53:24;16.50;99.90
17639;DHT22;8938;53.546;9.954;2023-03-24T10:55:49;16.50;99.90
17639;DHT22;8938;53.546;9.954;2023-03-24T10:58:37;16.80;99.90
17639;DHT22;8938;53.546;9.954;2023-03-24T11:01:24;17.30;99.90
17639;DHT22;8938;53.546;9.954;2023-03-24T11:03:51;17.50;99.90
17639;DHT22;8938;53.546;9.954;2023-03-24T11:06:22;17.40;99.90
17639;DHT22;8938;53.546;9.954;2023-03-24T11:09:09;17.40;99.90
17639;DHT22;8938;53.546;9.954;2023-03-24T11:11:40;17.40;99.90
17639;DHT22;8938;53.546;9.954;2023-03-24T11:14:21;17.20;99.90
17639;DHT22;8938;53.546;9.954;2023-03-24T11:16:49;17.20;99.90
17639;DHT22;8938;53.546;9.954;2023-03-24T11:19:18;17.20;99.90
17639;DHT22;8938;53.546;9.954;2023-03-24T11:21:46;17.10;99.90
17639;DHT22;8938;53.546;9.954;2023-03-24T11:24:15;17.20;99.90
17639;DHT22;8938;53.546;9.954;2023-03-24T11:26:56;17.20;99.90
17639;DHT22;8938;53.546;9.954;2023-03-24T11:29:25;17.20;99.90
17639;DHT22;8938;53.546;9.954;2023-03-24T11:31:54;17.40;99.90
17639;DHT22;8938;53.546;9.954;2023-03-24T11:34:45;17.40;99.90
17639;DHT22;8938;53.546;9.954;2023-03-24T11:37:15;17.60;99.90
17639;DHT22;8938;53.546;9.954;2023-03-24T11:39:42;17.50;99.90
17639;DHT22;8938;53.546;9.954;2023-03-24T11:42:15;17.60;99.90
17639;DHT22;8938;53.546;9.954;2023-03-24T11:44:51;17.70;99.90
17639;DHT22;8938;53.546;9.954;2023-03-24T11:47:30;17.80;99.90
17639;DHT22;8938;53.546;9.954;2023-03-24T11:52:37;18.20;99.90
17639;DHT22;8938;53.546;9.954;2023-03-24T11:55:13;18.40;99.90
17639;DHT22;8938;53.546;9.954;2023-03-24T12:00:24;18.40;99.60
17639;DHT22;8938;53.546;9.954;2023-03-24T12:03:15;18.10;99.40
17639;DHT22;8938;53.546;9.954;2023-03-24T12:06:04;18.00;99.60
17639;DHT22;8938;53.546;9.954;2023-03-24T12:09:09;17.80;99.90
17639;DHT22;8938;53.546;9.954;2023-03-24T12:14:41;17.70;99.90
17639;DHT22;8938;53.546;9.954;2023-03-24T12:17:14;17.90;99.90
17639;DHT22;8938;53.546;9.954;2023-03-24T12:31:50;18.50;99.90
17639;DHT22;8938;53.546;9.954;2023-03-24T12:34:40;18.80;99.90
17639;DHT22;8938;53.546;9.954;2023-03-24T12:37:35;19.00;99.30
17639;DHT22;8938;53.546;9.954;2023-03-24T12:40:41;19.00;99.30
17639;DHT22;8938;53.546;9.954;2023-03-24T12:45:50;18.60;99.30
17639;DHT22;8938;53.546;9.954;2023-03-24T12:48:37;18.50;99.40
17639;DHT22;8938;53.546;9.954;2023-03-24T12:57:07;18.10;99.50
17639;DHT22;8938;53.546;9.954;2023-03-24T12:59:56;18.40;99.80
17639;DHT22;8938;53.546;9.954;2023-03-24T13:02:40;18.70;99.60
17639;DHT22;8938;53.546;9.954;2023-03-24T13:08:16;18.40;99.10
17639;DHT22;8938;53.546;9.954;2023-03-24T13:10:48;18.50;98.90
17639;DHT22;8938;53.546;9.954;2023-03-24T13:13:28;18.80;98.40
17639;DHT22;8938;53.546;9.954;2023-03-24T13:16:02;18.70;97.90
17639;DHT22;8938;53.546;9.954;2023-03-24T13:18:36;18.80;96.30
17639;DHT22;8938;53.546;9.954;2023-03-24T13:21:16;18.70;95.70
17639;DHT22;8938;53.546;9.954;2023-03-24T13:23:57;18.80;95.90
17639;DHT22;8938;53.546;9.954;2023-03-24T13:31:45;19.00;95.70
17639;DHT22;8938;53.546;9.954;2023-03-24T13:34:35;18.90;95.30
17639;DHT22;8938;53.546;9.954;2023-03-24T13:37:05;18.80;94.80
17639;DHT22;8938;53.546;9.954;2023-03-24T13:39:33;18.70;94.90
17639;DHT22;8938;53.546;9.954;2023-03-24T13:42:01;18.60;95.60
17639;DHT22;8938;53.546;9.954;2023-03-24T13:47:15;19.00;95.70
17639;DHT22;8938;53.546;9.954;2023-03-24T13:49:45;19.00;95.10
17639;DHT22;8938;53.546;9.954;2023-03-24T13:52:33;19.00;94.50
17639;DHT22;8938;53.546;9.954;2023-03-24T13:55:01;18.80;93.90
17639;DHT22;8938;53.546;9.954;2023-03-24T13:57:32;18.70;93.70
17639;DHT22;8938;53.546;9.954;2023-03-24T14:02:44;18.50;93.40
17639;DHT22;8938;53.546;9.954;2023-03-24T14:05:33;18.40;93.80
17639;DHT22;8938;53.546;9.954;2023-03-24T14:10:47;18.40;94.00
17639;DHT22;8938;53.546;9.954;2023-03-24T14:15:55;18.40;94.00
17639;DHT22;8938;53.546;9.954;2023-03-24T14:21:13;18.60;94.00
17639;DHT22;8938;53.546;9.954;2023-03-24T14:23:49;18.50;93.70
17639;DHT22;8938;53.546;9.954;2023-03-24T14:36:35;18.40;93.70
17639;DHT22;8938;53.546;9.954;2023-03-24T14:39:29;18.50;94.00
17639;DHT22;8938;53.546;9.954;2023-03-24T14:41:56;18.50;93.60
17639;DHT22;8938;53.546;9.954;2023-03-24T14:47:23;18.50;93.10
17639;DHT22;8938;53.546;9.954;2023-03-24T14:49:52;18.50;93.00
17639;DHT22;8938;53.546;9.954;2023-03-24T14:52:26;18.50;92.60
17639;DHT22;8938;53.546;9.954;2023-03-24T14:54:59;18.50;91.50
17639;DHT22;8938;53.546;9.954;2023-03-24T14:57:43;18.40;91.60
17639;DHT22;8938;53.546;9.954;2023-03-24T15:00:14;18.30;91.00
17639;DHT22;8938;53.546;9.954;2023-03-24T15:02:44;18.20;91.10
17639;DHT22;8938;53.546;9.954;2023-03-24T15:05:27;18.30;91.20
17639;DHT22;8938;53.546;9.954;2023-03-24T15:08:15;18.30;90.80
17639;DHT22;8938;53.546;9.954;2023-03-24T15:10:55;18.30;90.40
17639;DHT22;8938;53.546;9.954;2023-03-24T15:13:40;18.20;89.50
17639;DHT22;8938;53.546;9.954;2023-03-24T15:16:23;18.20;90.10
17639;DHT22;8938;53.546;9.954;2023-03-24T15:18:56;18.40;90.20
17639;DHT22;8938;53.546;9.954;2023-03-24T15:21:23;18.30;89.80
17639;DHT22;8938;53.546;9.954;2023-03-24T15:23:49;18.40;90.00
17639;DHT22;8938;53.546;9.954;2023-03-24T15:26:15;18.30;89.20
17639;DHT22;8938;53.546;9.954;2023-03-24T15:28:43;18.20;89.60
17639;DHT22;8938;53.546;9.954;2023-03-24T15:31:09;18.20;89.80
17639;DHT22;8938;53.546;9.954;2023-03-24T15:33:41;18.20;90.00
17639;DHT22;8938;53.546;9.954;2023-03-24T15:36:15;18.10;90.00
17639;DHT22;8938;53.546;9.954;2023-03-24T15:38:48;18.20;90.30
17639;DHT22;8938;53.546;9.954;2023-03-24T15:41:21;18.20;90.20
17639;DHT22;8938;53.546;9.954;2023-03-24T15:43:50;18.10;90.60
17639;DHT22;8938;53.546;9.954;2023-03-24T15:46:26;18.10;90.60
17639;DHT22;8938;53.546;9.954;2023-03-24T15:48:52;18.00;90.50
17639;DHT22;8938;53.546;9.954;2023-03-24T15:51:19;18.00;90.80
17639;DHT22;8938;53.546;9.954;2023-03-24T15:53:47;18.10;91.00
17639;DHT22;8938;53.546;9.954;2023-03-24T15:56:26;18.20;91.20
17639;DHT22;8938;53.546;9.954;2023-03-24T16:01:26;18.30;91.10
17639;DHT22;8938;53.546;9.954;2023-03-24T16:04:01;18.20;91.30
17639;DHT22;8938;53.546;9.954;2023-03-24T16:06:31;18.30;91.50
17639;DHT22;8938;53.546;9.954;2023-03-24T16:09:04;18.40;91.70
17639;DHT22;8938;53.546;9.954;2023-03-24T16:11:29;18.50;91.60
17639;DHT22;8938;53.546;9.954;2023-03-24T16:13:55;18.50;91.70
17639;DHT22;8938;53.546;9.954;2023-03-24T16:16:25;18.40;91.80
17639;DHT22;8938;53.546;9.954;2023-03-24T16:18:52;18.30;92.00
17639;DHT22;8938;53.546;9.954;2023-03-24T16:21:25;18.10;92.10
17639;DHT22;8938;53.546;9.954;2023-03-24T16:23:53;18.10;92.30
17639;DHT22;8938;53.546;9.954;2023-03-24T16:26:20;18.00;92.50
17639;DHT22;8938;53.546;9.954;2023-03-24T16:28:47;17.90;92.90
17639;DHT22;8938;53.546;9.954;2023-03-24T16:31:31;17.80;93.20
17639;DHT22;8938;53.546;9.954;2023-03-24T16:33:59;17.50;97.00
17639;DHT22;8938;53.546;9.954;2023-03-24T16:36:26;17.60;93.60
17639;DHT22;8938;53.546;9.954;2023-03-24T16:38:53;17.50;93.70
17639;DHT22;8938;53.546;9.954;2023-03-24T16:41:19;17.40;94.00
17639;DHT22;8938;53.546;9.954;2023-03-24T16:43:46;17.40;94.20
17639;DHT22;8938;53.546;9.954;2023-03-24T16:46:21;17.40;94.30
17639;DHT22;8938;53.546;9.954;2023-03-24T16:48:53;17.40;94.40
17639;DHT22;8938;53.546;9.954;2023-03-24T16:51:19;17.40;94.60
17639;DHT22;8938;53.546;9.954;2023-03-24T16:53:45;17.20;94.70
17639;DHT22;8938;53.546;9.954;2023-03-24T16:56:14;17.10;94.70
17639;DHT22;8938;53.546;9.954;2023-03-24T16:58:40;17.00;95.00
17639;DHT22;8938;53.546;9.954;2023-03-24T17:01:34;16.90;95.20
17639;DHT22;8938;53.546;9.954;2023-03-24T17:04:07;16.90;95.50
17639;DHT22;8938;53.546;9.954;2023-03-24T17:06:37;16.90;95.50
17639;DHT22;8938;53.546;9.954;2023-03-24T17:09:04;17.00;95.70
17639;DHT22;8938;53.546;9.954;2023-03-24T17:11:35;17.00;95.70
17639;DHT22;8938;53.546;9.954;2023-03-24T17:14:03;17.10;95.80
17639;DHT22;8938;53.546;9.954;2023-03-24T17:16:30;17.20;95.80
17639;DHT22;8938;53.546;9.954;2023-03-24T17:18:57;17.20;95.80
